createdAt,value
2023-01-28T00:02:15.509Z,100819.23
2023-01-28T00:04:44.697Z,100821.20
2023-01-28T00:07:13.280Z,100815.71
2023-01-28T00:09:42.128Z,100811.63
2023-01-28T00:12:10.970Z,100808.80
2023-01-28T00:14:40.357Z,100809.84
2023-01-28T00:17:10.578Z,100808.90
2023-01-28T00:19:39.671Z,100804.45
2023-01-28T00:22:08.770Z,100807.80
2023-01-28T00:24:37.557Z,100807.13
2023-01-28T00:27:06.040Z,100802.20
2023-01-28T00:29:35.744Z,100800.20
2023-01-28T00:32:04.649Z,100803.98
2023-01-28T00:34:33.321Z,100806.39
2023-01-28T00:37:02.416Z,100803.92
2023-01-28T00:39:32.952Z,100800.84
2023-01-28T00:42:02.863Z,100795.02
2023-01-28T00:44:31.753Z,100795.73
2023-01-28T00:47:01.381Z,100793.28
2023-01-28T00:49:29.836Z,100788.86
2023-01-28T00:51:59.341Z,100786.71
2023-01-28T00:54:27.929Z,100784.70
2023-01-28T00:56:56.726Z,100784.10
2023-01-28T00:59:25.506Z,100783.36
2023-01-28T01:01:54.316Z,100778.92
2023-01-28T01:04:26.937Z,100775.84
2023-01-28T01:06:56.066Z,100772.73
2023-01-28T01:09:24.754Z,100768.43
2023-01-28T01:11:53.641Z,100762.55
2023-01-28T01:14:26.345Z,100758.70
2023-01-28T01:16:55.618Z,100751.36
2023-01-28T01:19:24.102Z,100747.02
2023-01-28T01:21:52.584Z,100745.89
2023-01-28T01:24:21.334Z,100738.79
2023-01-28T01:26:57.337Z,100736.73
2023-01-28T01:29:26.316Z,100733.36
2023-01-28T01:31:55.877Z,100735.90
2023-01-28T01:34:25.332Z,100730.65
2023-01-28T01:36:54.064Z,100727.42
2023-01-28T01:39:22.698Z,100722.57
2023-01-28T01:41:51.281Z,100718.07
2023-01-28T01:44:48.171Z,100723.13
2023-01-28T01:47:16.835Z,100731.20
2023-01-28T01:49:45.500Z,100735.14
2023-01-28T01:52:20.943Z,100739.18
2023-01-28T01:54:52.909Z,100748.23
2023-01-28T01:57:28.046Z,100749.89
2023-01-28T01:59:56.931Z,100754.07
2023-01-28T02:02:25.831Z,100757.89
2023-01-28T02:04:54.609Z,100753.30
2023-01-28T02:07:23.595Z,100747.80
2023-01-28T02:09:52.598Z,100750.82
2023-01-28T02:12:22.715Z,100747.38
2023-01-28T02:15:04.401Z,100745.95
2023-01-28T02:17:33.498Z,100744.17
2023-01-28T02:20:08.080Z,100740.89
2023-01-28T02:22:52.097Z,100742.29
2023-01-28T02:25:26.489Z,100737.84
2023-01-28T02:28:20.170Z,100734.78
2023-01-28T02:30:52.021Z,100731.56
2023-01-28T02:33:30.497Z,100733.84
2023-01-28T02:35:59.075Z,100737.48
2023-01-28T02:38:33.332Z,100734.73
2023-01-28T02:41:10.549Z,100729.13
2023-01-28T02:43:44.125Z,100724.55
2023-01-28T02:46:40.454Z,100722.73
2023-01-28T02:49:14.462Z,100722.26
2023-01-28T02:52:01.885Z,100717.95
2023-01-28T02:54:34.460Z,100718.02
2023-01-28T02:57:31.104Z,100714.14
2023-01-28T03:00:11.256Z,100718.47
2023-01-28T03:02:43.065Z,100720.93
2023-01-28T03:05:21.427Z,100714.77
2023-01-28T03:07:50.013Z,100714.70
2023-01-28T03:10:20.961Z,100713.83
2023-01-28T03:13:10.566Z,100713.87
2023-01-28T03:16:03.290Z,100716.63
2023-01-28T03:19:09.641Z,100716.25
2023-01-28T03:28:29.159Z,100715.01
2023-01-28T03:31:18.323Z,100712.52
2023-01-28T03:34:09.443Z,100709.11
2023-01-28T03:36:48.781Z,100707.67
2023-01-28T03:39:52.988Z,100705.09
2023-01-28T03:42:22.390Z,100705.39
2023-01-28T03:45:05.007Z,100708.36
2023-01-28T03:47:34.510Z,100710.13
2023-01-28T03:50:06.863Z,100706.40
2023-01-28T03:53:17.000Z,100709.05
2023-01-28T03:55:56.806Z,100715.07
2023-01-28T03:58:27.412Z,100708.89
2023-01-28T04:00:56.107Z,100707.08
2023-01-28T04:03:24.992Z,100704.95
2023-01-28T04:06:05.119Z,100707.61
2023-01-28T04:08:59.625Z,100707.53
2023-01-28T04:11:34.982Z,100708.21
2023-01-28T04:14:05.302Z,100711.01
2023-01-28T04:16:43.003Z,100711.98
2023-01-28T04:19:14.760Z,100705.02
2023-01-28T04:21:43.949Z,100705.63
2023-01-28T04:24:15.849Z,100709.32
2023-01-28T04:26:44.601Z,100713.18
2023-01-28T04:29:13.490Z,100716.94
2023-01-28T04:31:42.118Z,100716.04
2023-01-28T04:34:40.160Z,100714.45
2023-01-28T04:37:44.159Z,100718.52
2023-01-28T04:40:36.505Z,100715.64
2023-01-28T04:43:14.955Z,100714.21
2023-01-28T04:45:56.211Z,100715.98
2023-01-28T04:48:41.990Z,100717.55
2023-01-28T04:51:22.134Z,100718.80
2023-01-28T04:54:09.367Z,100715.79
2023-01-28T04:56:38.860Z,100717.36
2023-01-28T04:59:08.576Z,100720.23
2023-01-28T05:01:37.628Z,100720.27
2023-01-28T05:04:08.195Z,100721.40
2023-01-28T05:06:40.177Z,100719.27
2023-01-28T05:09:18.158Z,100725.64
2023-01-28T05:11:47.877Z,100729.29
2023-01-28T05:14:16.776Z,100733.79
2023-01-28T05:16:48.693Z,100732.77
2023-01-28T05:19:18.840Z,100741.40
2023-01-28T05:21:48.461Z,100736.86
2023-01-28T05:24:29.382Z,100737.89
2023-01-28T05:26:58.313Z,100731.55
2023-01-28T05:29:27.012Z,100730.88
2023-01-28T05:31:56.517Z,100732.00
2023-01-28T05:34:25.935Z,100733.71
2023-01-28T05:36:56.041Z,100733.10
2023-01-28T05:39:55.948Z,100727.00
2023-01-28T05:42:25.859Z,100737.34
2023-01-28T05:45:56.031Z,100730.27
2023-01-28T05:48:31.342Z,100731.60
2023-01-28T05:51:43.173Z,100735.47
2023-01-28T05:54:12.828Z,100740.50
2023-01-28T05:56:41.414Z,100744.80
2023-01-28T05:59:11.430Z,100741.88
2023-01-28T06:01:43.697Z,100742.41
2023-01-28T06:04:12.309Z,100744.92
2023-01-28T06:06:41.282Z,100744.33
2023-01-28T06:09:10.069Z,100741.45
2023-01-28T06:11:39.098Z,100736.61
2023-01-28T06:14:08.455Z,100734.23
2023-01-28T06:16:55.992Z,100737.54
2023-01-28T06:19:34.510Z,100739.33
2023-01-28T06:22:03.498Z,100736.44
2023-01-28T06:24:34.230Z,100731.20
2023-01-28T06:27:02.809Z,100724.83
2023-01-28T06:29:31.734Z,100730.48
2023-01-28T06:32:00.557Z,100729.58
2023-01-28T06:34:29.793Z,100730.75
2023-01-28T06:36:58.372Z,100733.29
2023-01-28T06:39:28.593Z,100728.69
2023-01-28T06:41:57.277Z,100725.95
2023-01-28T06:44:25.869Z,100726.19
2023-01-28T06:46:54.548Z,100729.67
2023-01-28T06:49:23.231Z,100723.54
2023-01-28T06:51:52.330Z,100719.94
2023-01-28T06:54:21.057Z,100724.88
2023-01-28T06:56:49.619Z,100726.67
2023-01-28T06:59:18.691Z,100721.89
2023-01-28T07:01:47.940Z,100721.05
2023-01-28T07:04:16.471Z,100721.92
2023-01-28T07:06:47.001Z,100725.73
2023-01-28T07:09:15.995Z,100724.70
2023-01-28T07:11:46.316Z,100724.03
2023-01-28T07:14:15.627Z,100734.02
2023-01-28T07:16:43.998Z,100738.86
2023-01-28T07:19:16.221Z,100740.66
2023-01-28T07:21:45.053Z,100734.13
2023-01-28T07:24:14.365Z,100725.52
2023-01-28T07:26:43.177Z,100724.37
2023-01-28T07:29:12.138Z,100732.36
2023-01-28T07:31:41.015Z,100735.39
2023-01-28T07:34:10.742Z,100732.23
2023-01-28T07:36:41.568Z,100735.95
2023-01-28T07:39:10.152Z,100733.16
2023-01-28T07:41:38.847Z,100736.72
2023-01-28T07:44:08.861Z,100737.20
2023-01-28T07:46:38.902Z,100733.23
2023-01-28T07:49:07.896Z,100734.11
2023-01-28T07:51:37.782Z,100743.09
2023-01-28T07:54:06.465Z,100747.00
2023-01-28T07:56:35.355Z,100755.48
2023-01-28T07:59:04.759Z,100743.84
2023-01-28T08:01:35.339Z,100741.95
2023-01-28T08:04:03.946Z,100747.38
2023-01-28T08:06:38.393Z,100751.31
2023-01-28T08:09:08.715Z,100755.77
2023-01-28T08:11:40.984Z,100757.27
2023-01-28T08:14:12.080Z,100748.73
2023-01-28T08:16:40.427Z,100739.41
2023-01-28T08:19:09.397Z,100749.55
2023-01-28T08:21:37.980Z,100749.41
2023-01-28T08:24:08.045Z,100749.81
2023-01-28T08:26:36.889Z,100743.74
2023-01-28T08:29:06.085Z,100747.04
2023-01-28T08:31:34.788Z,100735.87
2023-01-28T08:34:03.454Z,100736.57
2023-01-28T08:36:32.653Z,100736.80
2023-01-28T08:39:01.645Z,100736.34
2023-01-28T08:41:30.640Z,100728.90
2023-01-28T08:44:00.598Z,100729.69
2023-01-28T08:46:30.259Z,100722.44
2023-01-28T08:48:59.207Z,100714.63
2023-01-28T08:51:29.032Z,100707.05
2023-01-28T08:53:57.867Z,100704.11
2023-01-28T08:56:26.771Z,100707.52
2023-01-28T08:58:57.237Z,100705.08
2023-01-28T09:01:27.875Z,100703.97
2023-01-28T09:03:56.710Z,100697.94
2023-01-28T09:06:25.689Z,100693.55
2023-01-28T09:09:02.292Z,100691.91
2023-01-28T09:11:31.975Z,100698.70
2023-01-28T09:14:01.922Z,100687.16
2023-01-28T09:16:33.844Z,100690.27
2023-01-28T09:19:02.946Z,100689.40
2023-01-28T09:21:31.726Z,100685.95
2023-01-28T09:24:02.187Z,100676.79
2023-01-28T09:26:34.745Z,100677.91
2023-01-28T09:29:03.413Z,100675.16
2023-01-28T09:31:32.938Z,100670.55
2023-01-28T09:34:04.477Z,100663.60
2023-01-28T09:36:36.779Z,100662.62
2023-01-28T09:39:05.734Z,100653.81
2023-01-28T09:41:59.217Z,100655.69
2023-01-28T09:44:56.559Z,100648.27
2023-01-28T09:47:48.494Z,100651.19
2023-01-28T09:50:26.456Z,100661.16
2023-01-28T09:52:56.994Z,100657.52
2023-01-28T09:55:37.908Z,100657.27
2023-01-28T09:58:11.699Z,100652.11
2023-01-28T10:00:56.665Z,100658.61
2023-01-28T10:03:44.425Z,100654.96
2023-01-28T10:06:24.554Z,100648.82
2023-01-28T10:08:59.393Z,100640.09
2023-01-28T10:11:50.836Z,100639.48
2023-01-28T10:14:25.734Z,100626.27
2023-01-28T10:17:09.841Z,100629.52
2023-01-28T10:19:44.635Z,100618.82
2023-01-28T10:22:15.446Z,100615.15
2023-01-28T10:24:47.515Z,100613.04
2023-01-28T10:27:20.806Z,100611.31
2023-01-28T10:29:51.138Z,100608.55
2023-01-28T10:32:35.625Z,100600.95
2023-01-28T10:35:05.048Z,100604.33
2023-01-28T10:37:37.457Z,100595.33
2023-01-28T10:40:19.109Z,100594.17
2023-01-28T10:42:48.860Z,100594.91
2023-01-28T10:45:25.708Z,100591.32
2023-01-28T10:48:09.075Z,100587.95
2023-01-28T10:50:37.956Z,100580.27
2023-01-28T10:53:06.658Z,100578.58
2023-01-28T10:55:57.732Z,100576.29
2023-01-28T10:58:28.282Z,100575.80
2023-01-28T11:01:07.325Z,100575.00
2023-01-28T11:03:56.511Z,100567.87
2023-01-28T11:06:31.760Z,100574.27
2023-01-28T11:09:01.653Z,100574.09
2023-01-28T11:11:31.073Z,100576.52
2023-01-28T11:14:01.588Z,100579.91
2023-01-28T11:16:33.318Z,100578.40
2023-01-28T11:19:05.244Z,100577.69
2023-01-28T11:21:38.400Z,100578.42
2023-01-28T11:24:14.593Z,100581.64
2023-01-28T11:26:45.342Z,100582.30
2023-01-28T11:29:35.650Z,100579.63
2023-01-28T11:32:04.145Z,100574.13
2023-01-28T11:34:35.393Z,100575.43
2023-01-28T11:37:16.642Z,100572.13
2023-01-28T11:39:47.474Z,100569.67
2023-01-28T11:42:18.645Z,100577.08
2023-01-28T11:44:50.136Z,100580.94
2023-01-28T11:47:34.257Z,100578.50
2023-01-28T11:50:23.513Z,100573.90
2023-01-28T11:53:07.269Z,100565.66
2023-01-28T11:55:48.537Z,100566.90
2023-01-28T11:58:49.475Z,100566.52
2023-01-28T12:01:18.157Z,100563.55
2023-01-28T12:04:16.648Z,100555.89
2023-01-28T12:07:01.709Z,100559.09
2023-01-28T12:09:40.636Z,100554.48
2023-01-28T12:12:21.627Z,100555.40
2023-01-28T12:14:52.139Z,100553.42
2023-01-28T12:17:30.149Z,100555.23
2023-01-28T12:20:05.910Z,100552.66
2023-01-28T12:22:45.752Z,100554.13
2023-01-28T12:25:50.274Z,100551.59
2023-01-28T12:28:22.401Z,100547.30
2023-01-28T12:31:04.319Z,100547.46
2023-01-28T12:33:56.100Z,100549.05
2023-01-28T12:36:43.228Z,100549.73
2023-01-28T12:39:42.289Z,100551.54
2023-01-28T12:42:35.387Z,100551.74
2023-01-28T12:45:23.183Z,100551.49
2023-01-28T12:48:00.481Z,100553.34
2023-01-28T12:50:45.696Z,100554.83
2023-01-28T12:53:40.098Z,100562.41
2023-01-28T12:56:19.144Z,100562.45
2023-01-28T12:59:07.510Z,100558.52
2023-01-28T13:02:13.494Z,100552.40
2023-01-28T13:04:48.499Z,100557.48
2023-01-28T13:07:21.875Z,100559.21
2023-01-28T13:10:06.228Z,100563.09
2023-01-28T13:12:35.116Z,100562.30
2023-01-28T13:15:31.048Z,100565.48
2023-01-28T13:18:04.764Z,100564.42
2023-01-28T13:20:38.045Z,100561.91
2023-01-28T13:23:22.067Z,100560.83
2023-01-28T13:25:54.787Z,100557.48
2023-01-28T13:28:29.312Z,100564.44
2023-01-28T13:31:05.881Z,100566.43
2023-01-28T13:33:39.767Z,100562.92
2023-01-28T13:36:32.011Z,100560.44
2023-01-28T13:39:19.879Z,100565.25
2023-01-28T13:41:56.307Z,100569.15
2023-01-28T13:44:34.005Z,100564.70
2023-01-28T13:47:05.982Z,100558.70
2023-01-28T13:49:34.802Z,100561.96
2023-01-28T13:52:17.180Z,100561.64
2023-01-28T13:55:03.469Z,100568.52
2023-01-28T13:58:00.961Z,100563.29
2023-01-28T14:00:56.150Z,100572.67
2023-01-28T14:03:29.533Z,100576.60
2023-01-28T14:06:08.263Z,100573.71
2023-01-28T14:09:20.063Z,100573.80
2023-01-28T14:12:28.536Z,100574.67
2023-01-28T14:15:34.643Z,100574.92
2023-01-28T14:18:07.872Z,100576.63
2023-01-28T14:20:42.887Z,100583.77
2023-01-28T14:23:19.415Z,100581.46
2023-01-28T14:26:00.118Z,100581.88
2023-01-28T14:28:47.205Z,100589.27
2023-01-28T14:31:34.264Z,100593.25
2023-01-28T14:34:32.714Z,100597.09
2023-01-28T14:37:09.185Z,100595.65
2023-01-28T14:39:59.565Z,100593.81
2023-01-28T14:42:30.606Z,100598.09
2023-01-28T14:45:20.695Z,100598.22
2023-01-28T14:48:10.982Z,100603.39
2023-01-28T14:51:19.223Z,100604.64
2023-01-28T14:54:07.544Z,100604.14
2023-01-28T14:56:56.332Z,100612.84
2023-01-28T14:59:51.809Z,100614.34
2023-01-28T15:02:30.761Z,100616.08
2023-01-28T15:05:10.819Z,100610.90
2023-01-28T15:07:39.988Z,100612.41
2023-01-28T15:10:26.582Z,100613.52
2023-01-28T15:13:00.608Z,100615.62
2023-01-28T15:15:40.619Z,100619.16
2023-01-28T15:18:27.595Z,100621.94
2023-01-28T15:20:56.582Z,100624.30
2023-01-28T15:23:33.375Z,100627.64
2023-01-28T15:26:30.123Z,100632.21
2023-01-28T15:28:59.555Z,100632.67
2023-01-28T15:31:30.834Z,100637.70
2023-01-28T15:33:59.413Z,100638.06
2023-01-28T15:36:28.473Z,100638.26
2023-01-28T15:38:58.874Z,100640.05
2023-01-28T15:41:30.850Z,100639.48
2023-01-28T15:43:59.275Z,100642.02
2023-01-28T15:46:30.263Z,100639.60
2023-01-28T15:49:03.505Z,100644.33
2023-01-28T15:51:34.115Z,100645.02
2023-01-28T15:54:08.075Z,100641.27
2023-01-28T15:56:36.948Z,100645.20
2023-01-28T15:59:18.322Z,100642.61
2023-01-28T16:01:49.365Z,100643.18
2023-01-28T16:04:29.628Z,100645.58
2023-01-28T16:06:58.747Z,100648.30
2023-01-28T16:09:29.138Z,100647.23
2023-01-28T16:12:04.544Z,100648.61
2023-01-28T16:14:43.823Z,100645.13
2023-01-28T16:17:17.518Z,100640.50
2023-01-28T16:19:51.306Z,100645.23
2023-01-28T16:22:45.024Z,100645.30
2023-01-28T16:25:31.599Z,100647.41
2023-01-28T16:28:01.309Z,100641.66
2023-01-28T16:30:30.315Z,100646.50
2023-01-28T16:33:00.643Z,100649.33
2023-01-28T16:35:42.549Z,100645.36
2023-01-28T16:38:19.092Z,100646.00
2023-01-28T16:40:53.818Z,100646.27
2023-01-28T16:43:22.662Z,100643.14
2023-01-28T16:45:51.395Z,100645.77
2023-01-28T16:48:23.360Z,100642.84
2023-01-28T16:50:52.660Z,100641.36
2023-01-28T16:53:23.543Z,100643.49
2023-01-28T16:55:54.774Z,100643.67
2023-01-28T16:58:25.204Z,100642.89
2023-01-28T17:00:54.127Z,100640.77
2023-01-28T17:03:23.637Z,100641.38
2023-01-28T17:05:52.387Z,100637.35
2023-01-28T17:08:23.913Z,100637.80
2023-01-28T17:10:56.530Z,100637.02
2023-01-28T17:13:25.431Z,100631.98
2023-01-28T17:15:54.354Z,100635.42
2023-01-28T17:18:23.678Z,100637.01
2023-01-28T17:21:30.238Z,100637.89
2023-01-28T17:24:01.190Z,100638.11
2023-01-28T17:26:30.389Z,100634.16
2023-01-28T17:28:59.976Z,100629.56
2023-01-28T17:31:28.787Z,100628.15
2023-01-28T17:34:01.366Z,100629.02
2023-01-28T17:36:30.273Z,100627.39
2023-01-28T17:38:59.331Z,100625.63
2023-01-28T17:41:28.219Z,100623.95
2023-01-28T17:43:58.749Z,100621.06
2023-01-28T17:46:29.610Z,100615.06
2023-01-28T17:48:58.197Z,100615.14
2023-01-28T17:51:27.744Z,100611.63
2023-01-28T17:53:56.711Z,100611.34
2023-01-28T17:56:27.557Z,100609.89
2023-01-28T17:58:59.833Z,100606.13
2023-01-28T18:01:28.705Z,100605.02
2023-01-28T18:03:58.679Z,100607.17
2023-01-28T18:06:36.094Z,100605.19
2023-01-28T18:09:05.283Z,100603.98
2023-01-28T18:11:34.179Z,100599.18
2023-01-28T18:14:03.725Z,100601.27
2023-01-28T18:16:32.651Z,100593.73
2023-01-28T18:19:01.447Z,100594.70
2023-01-28T18:21:51.830Z,100594.12
2023-01-28T18:24:26.539Z,100588.91
2023-01-28T18:27:00.125Z,100587.94
2023-01-28T18:29:29.979Z,100583.02
2023-01-28T18:31:59.909Z,100581.20
2023-01-28T18:34:32.027Z,100580.78
2023-01-28T18:37:00.943Z,100580.63
2023-01-28T18:39:31.475Z,100580.93
2023-01-28T18:42:00.385Z,100579.59
2023-01-28T18:44:33.570Z,100578.40
2023-01-28T18:47:05.434Z,100574.02
2023-01-28T18:49:35.130Z,100569.70
2023-01-28T18:52:03.812Z,100568.48
2023-01-28T18:54:33.917Z,100568.65
2023-01-28T18:57:03.228Z,100569.92
2023-01-28T18:59:32.247Z,100568.12
2023-01-28T19:02:01.597Z,100565.50
2023-01-28T19:04:30.804Z,100560.67
2023-01-28T19:06:59.838Z,100565.37
2023-01-28T19:09:31.475Z,100558.70
2023-01-28T19:12:00.717Z,100560.55
2023-01-28T19:14:31.028Z,100562.41
2023-01-28T19:17:01.772Z,100561.54
2023-01-28T19:19:32.356Z,100568.77
2023-01-28T19:22:01.778Z,100566.35
2023-01-28T19:24:32.565Z,100563.88
2023-01-28T19:27:01.897Z,100562.92
2023-01-28T19:29:31.515Z,100571.55
2023-01-28T19:32:00.749Z,100570.06
2023-01-28T19:34:30.822Z,100568.80
2023-01-28T19:36:59.505Z,100568.86
2023-01-28T19:39:32.138Z,100568.10
2023-01-28T19:42:02.602Z,100566.25
2023-01-28T19:44:33.241Z,100562.80
2023-01-28T19:47:03.629Z,100559.41
2023-01-28T19:49:35.447Z,100553.71
2023-01-28T19:52:05.340Z,100557.05
2023-01-28T19:54:34.560Z,100556.70
2023-01-28T19:57:06.396Z,100555.22
2023-01-28T19:59:34.981Z,100555.87
2023-01-28T20:02:06.123Z,100552.78
2023-01-28T20:04:35.221Z,100550.33
2023-01-28T20:07:05.558Z,100549.81
2023-01-28T20:09:36.406Z,100550.23
2023-01-28T20:12:05.232Z,100549.73
2023-01-28T20:14:34.594Z,100550.27
2023-01-28T20:17:03.175Z,100550.33
2023-01-28T20:19:35.113Z,100548.67
2023-01-28T20:22:03.816Z,100549.23
2023-01-28T20:24:34.149Z,100546.91
2023-01-28T20:27:02.762Z,100543.88
2023-01-28T20:29:33.340Z,100544.89
2023-01-28T20:32:16.200Z,100547.21
2023-01-28T20:34:46.895Z,100545.79
2023-01-28T20:37:15.779Z,100545.01
2023-01-28T20:39:44.363Z,100545.90
2023-01-28T20:42:14.278Z,100543.45
2023-01-28T20:44:42.657Z,100544.70
2023-01-28T20:47:13.609Z,100540.84
2023-01-28T20:49:43.113Z,100539.08
2023-01-28T20:52:12.407Z,100539.23
2023-01-28T20:54:42.152Z,100538.66
2023-01-28T20:57:10.618Z,100536.44
2023-01-28T20:59:39.787Z,100536.53
2023-01-28T21:02:10.278Z,100534.98
2023-01-28T21:04:38.831Z,100539.64
2023-01-28T21:07:10.046Z,100534.23
2023-01-28T21:09:39.804Z,100533.04
2023-01-28T21:12:11.109Z,100529.39
2023-01-28T21:14:42.958Z,100529.49
2023-01-28T21:17:11.982Z,100528.20
2023-01-28T21:19:41.563Z,100525.98
2023-01-28T21:22:11.527Z,100528.02
2023-01-28T21:24:44.187Z,100525.90
2023-01-28T21:27:13.453Z,100527.01
2023-01-28T21:29:43.096Z,100527.22
2023-01-28T21:32:14.515Z,100523.11
2023-01-28T21:34:43.724Z,100516.08
2023-01-28T21:37:12.508Z,100516.42
2023-01-28T21:39:41.336Z,100513.73
2023-01-28T21:42:10.483Z,100512.58
2023-01-28T21:44:39.012Z,100510.98
2023-01-28T21:47:08.365Z,100509.67
2023-01-28T21:49:38.073Z,100512.83
2023-01-28T21:52:09.426Z,100514.86
2023-01-28T21:54:38.313Z,100515.50
2023-01-28T21:57:07.926Z,100515.05
2023-01-28T21:59:38.860Z,100510.84
2023-01-28T22:02:09.928Z,100508.85
2023-01-28T22:04:42.206Z,100505.21
2023-01-28T22:07:12.190Z,100506.05
2023-01-28T22:09:41.080Z,100507.58
2023-01-28T22:12:09.976Z,100507.86
2023-01-28T22:14:39.833Z,100512.38
2023-01-28T22:17:09.541Z,100511.96
2023-01-28T22:19:38.996Z,100515.03
2023-01-28T22:22:07.366Z,100517.59
2023-01-28T22:24:35.985Z,100517.94
2023-01-28T22:27:04.638Z,100515.42
2023-01-28T22:29:33.535Z,100513.36
2023-01-28T22:32:05.039Z,100513.36
2023-01-28T22:34:33.774Z,100507.83
2023-01-28T22:37:02.353Z,100507.39
2023-01-28T22:39:31.036Z,100507.55
2023-01-28T22:42:00.648Z,100503.09
2023-01-28T22:44:29.125Z,100506.15
2023-01-28T22:46:58.018Z,100502.20
2023-01-28T22:49:27.014Z,100505.82
2023-01-28T22:51:56.418Z,100497.70
2023-01-28T22:54:25.587Z,100500.52
2023-01-28T22:56:54.086Z,100500.92
2023-01-28T22:59:22.669Z,100503.25
2023-01-28T23:01:51.495Z,100500.98
2023-01-28T23:04:20.347Z,100501.95
2023-01-28T23:06:50.467Z,100501.98
2023-01-28T23:09:19.363Z,100505.61
2023-01-28T23:11:48.147Z,100500.53
2023-01-28T23:14:35.368Z,100501.73
2023-01-28T23:17:22.825Z,100497.95
2023-01-28T23:20:10.316Z,100496.00
2023-01-28T23:22:57.642Z,100494.83
2023-01-28T23:25:26.120Z,100493.08
2023-01-28T23:27:54.498Z,100492.81
2023-01-28T23:30:25.951Z,100491.04
2023-01-28T23:32:59.450Z,100488.77
2023-01-28T23:35:28.343Z,100490.48
2023-01-28T23:37:56.920Z,100492.76
2023-01-28T23:40:27.393Z,100492.98
2023-01-28T23:42:56.028Z,100493.10
2023-01-28T23:45:25.648Z,100493.30
2023-01-28T23:47:54.640Z,100493.14
2023-01-28T23:50:23.246Z,100493.25
2023-01-28T23:52:55.186Z,100489.99
2023-01-28T23:55:23.862Z,100492.77
2023-01-28T23:57:52.548Z,100496.92
